Time;durP1;ratioP1;P1;durP2;ratioP2;P2;SDS_P1;SDS_P2;PMS_P1;PMS_P2;Temp;Humidity;BMP_temperature;BMP_pressure;BME280_temperature;BME280_humidity;BME280_pressure;Samples;Min_cycle;Max_cycle;Signal;HPM_P1;HPM_P2
2022/10/20 00:01:37;;;;;;;42.08;8.48;;;;;;;13.90;100.00;98486.44;5011157;28;20072;-58
2022/10/20 00:04:02;;;;;;;30.80;7.72;;;;;;;14.12;100.00;98482.81;5011218;28;20831;-59
2022/10/20 00:06:31;;;;;;;37.60;8.10;;;;;;;13.48;100.00;98479.63;5012690;28;20061;-58
2022/10/20 00:08:58;;;;;;;45.33;8.88;;;;;;;13.14;100.00;98478.47;5012947;28;20025;-60
2022/10/20 00:11:25;;;;;;;38.20;8.00;;;;;;;13.50;100.00;98477.78;5009773;28;20041;-58
2022/10/20 00:13:52;;;;;;;32.50;8.30;;;;;;;13.23;100.00;98456.25;5011060;28;20036;-57
2022/10/20 00:16:17;;;;;;;36.15;8.00;;;;;;;12.93;100.00;98449.66;5010924;28;20037;-58
2022/10/20 00:18:43;;;;;;;33.10;8.20;;;;;;;13.04;100.00;98448.38;5009801;28;20414;-58
2022/10/20 00:21:15;;;;;;;44.92;9.45;;;;;;;12.69;100.00;98445.50;5011648;28;20133;-58
2022/10/20 00:23:40;;;;;;;28.88;8.02;;;;;;;12.76;100.00;98443.50;5011443;28;20033;-58
2022/10/20 00:26:10;;;;;;;41.42;9.38;;;;;;;12.54;100.00;98447.84;5009694;28;20493;-58
2022/10/20 00:28:35;;;;;;;37.85;8.40;;;;;;;12.81;100.00;98439.75;5010193;28;20029;-57
2022/10/20 00:31:01;;;;;;;41.30;9.20;;;;;;;12.50;100.00;98440.19;5009775;28;20042;-57
2022/10/20 00:33:26;;;;;;;43.38;10.55;;;;;;;12.21;100.00;98439.63;5011787;28;20052;-57
2022/10/20 00:35:52;;;;;;;36.67;9.07;;;;;;;12.28;100.00;98435.00;5007537;28;20117;-57
2022/10/20 00:38:17;;;;;;;38.08;8.70;;;;;;;12.64;100.00;98427.34;5010546;28;20024;-57
2022/10/20 00:40:43;;;;;;;32.67;8.68;;;;;;;12.63;100.00;98430.91;5013104;28;20047;-57
2022/10/20 00:43:11;;;;;;;40.80;9.32;;;;;;;12.46;100.00;98429.00;5012089;28;20025;-61
2022/10/20 00:45:36;;;;;;;35.92;9.30;;;;;;;12.54;100.00;98432.13;5006213;28;20478;-57
2022/10/20 00:48:07;;;;;;;37.38;8.95;;;;;;;12.90;100.00;98423.66;4995808;28;20033;-58
2022/10/20 00:50:40;;;;;;;41.00;9.85;;;;;;;13.06;100.00;98417.72;5009893;28;20048;-61
2022/10/20 00:53:06;;;;;;;33.63;8.50;;;;;;;12.66;100.00;98414.22;5010940;28;20025;-58
2022/10/20 00:55:34;;;;;;;41.92;10.02;;;;;;;13.07;100.00;98427.28;5010049;28;20036;-58
2022/10/20 00:58:01;;;;;;;42.38;8.98;;;;;;;12.88;100.00;98415.00;5010613;28;20027;-59
2022/10/20 01:23:56;;;;;;;271.83;30.25;;;;;;;13.11;100.00;98394.81;5957765;23;20028;-61
2022/10/20 01:44:51;;;;;;;33.72;8.43;;;;;;;12.85;100.00;98381.09;6079804;23;20380;-56
2022/10/20 02:00:16;;;;;;;78.63;13.05;;;;;;;12.29;100.00;98373.91;5827859;23;20467;-56
2022/10/20 02:03:25;;;;;;;39.30;9.55;;;;;;;12.13;100.00;98374.56;5027682;28;20033;-55
2022/10/20 02:06:09;;;;;;;48.33;10.63;;;;;;;12.43;100.00;98370.72;5036662;28;20043;-56
2022/10/20 02:08:46;;;;;;;38.25;9.63;;;;;;;12.31;100.00;98359.88;5040823;28;20033;-57
2022/10/20 02:11:24;;;;;;;41.00;10.20;;;;;;;12.35;100.00;98352.72;5026585;28;20117;-56
2022/10/20 02:13:51;;;;;;;41.65;9.90;;;;;;;12.28;100.00;98353.94;5021397;28;20029;-57
2022/10/20 02:16:24;;;;;;;33.85;9.40;;;;;;;12.07;100.00;98347.81;5015044;28;20042;-57
2022/10/20 02:18:50;;;;;;;53.67;11.18;;;;;;;12.28;100.00;98346.06;5018369;28;20017;-55
2022/10/20 02:21:16;;;;;;;43.10;9.90;;;;;;;12.43;100.00;98345.41;5019340;28;20045;-55
2022/10/20 02:23:45;;;;;;;34.42;9.02;;;;;;;11.91;100.00;98347.59;5021597;28;20030;-55
2022/10/20 02:26:14;;;;;;;33.28;9.18;;;;;;;12.04;100.00;98342.69;5020701;28;20041;-55
2022/10/20 02:28:43;;;;;;;35.85;10.20;;;;;;;11.86;100.00;98341.69;5021183;28;20708;-55
2022/10/20 02:31:09;;;;;;;57.42;11.10;;;;;;;11.87;100.00;98336.41;5018495;28;20086;-57
2022/10/20 02:33:35;;;;;;;37.38;9.75;;;;;;;12.06;100.00;98331.28;5019732;28;20025;-57
2022/10/20 02:36:03;;;;;;;48.25;11.40;;;;;;;11.80;100.00;98318.38;5022130;28;20045;-55
2022/10/20 02:38:29;;;;;;;38.13;10.18;;;;;;;12.16;100.00;98318.66;5021319;28;20028;-54
2022/10/20 02:40:54;;;;;;;44.35;10.38;;;;;;;12.10;100.00;98319.78;5019837;28;20037;-54
2022/10/20 02:43:20;;;;;;;36.55;10.07;;;;;;;11.99;100.00;98313.31;5020912;28;20021;-54
2022/10/20 02:45:45;;;;;;;38.42;9.63;;;;;;;11.82;100.00;98316.56;5020175;28;20046;-56
2022/10/20 02:48:10;;;;;;;42.42;10.43;;;;;;;12.03;100.00;98310.47;5021199;28;20030;-57
2022/10/20 02:50:36;;;;;;;34.22;9.70;;;;;;;11.83;100.00;98310.44;5019496;28;20300;-55
2022/10/20 02:53:03;;;;;;;46.72;10.05;;;;;;;12.15;100.00;98309.97;5020128;28;20510;-55
2022/10/20 02:55:28;;;;;;;36.92;9.30;;;;;;;12.14;100.00;98316.09;5019532;28;20033;-55
2022/10/20 02:57:54;;;;;;;36.22;9.80;;;;;;;12.00;100.00;98315.81;5021259;28;20029;-55
2022/10/20 03:00:20;;;;;;;41.05;9.88;;;;;;;12.00;100.00;98309.75;5018515;28;20101;-55
2022/10/20 03:02:46;;;;;;;38.17;10.10;;;;;;;12.20;100.00;98311.53;5020091;28;20037;-58
2022/10/20 03:05:12;;;;;;;49.17;10.48;;;;;;;11.79;100.00;98307.09;5019036;28;20033;-55
2022/10/20 03:07:37;;;;;;;33.63;9.27;;;;;;;12.17;100.00;98306.44;5020636;28;20060;-57
2022/10/20 03:10:03;;;;;;;40.33;10.20;;;;;;;12.05;100.00;98316.50;5018724;28;20433;-53
2022/10/20 03:12:29;;;;;;;33.90;9.32;;;;;;;12.22;100.00;98313.19;5019108;28;20041;-57
2022/10/20 03:14:54;;;;;;;38.47;9.55;;;;;;;12.15;100.00;98319.59;5020020;28;20029;-55
2022/10/20 03:17:19;;;;;;;39.95;8.68;;;;;;;12.72;100.00;98319.75;5018994;28;20103;-55
2022/10/20 03:19:44;;;;;;;50.70;10.57;;;;;;;11.97;100.00;98321.22;5020042;28;20036;-56
2022/10/20 03:22:10;;;;;;;42.83;9.00;;;;;;;12.55;100.00;98317.84;5019158;28;20039;-55
2022/10/20 03:24:35;;;;;;;52.67;10.63;;;;;;;12.34;100.00;98320.50;5019446;28;20057;-58
2022/10/20 03:27:01;;;;;;;36.83;9.25;;;;;;;12.29;100.00;98322.44;5019134;28;20088;-56
2022/10/20 03:29:26;;;;;;;45.03;10.57;;;;;;;11.95;100.00;98321.28;5020306;28;20120;-56
2022/10/20 03:31:51;;;;;;;37.75;10.10;;;;;;;11.64;100.00;98318.19;5019193;28;20149;-55
2022/10/20 03:34:16;;;;;;;43.45;10.60;;;;;;;11.68;100.00;98322.38;5019582;28;20924;-55
2022/10/20 03:36:42;;;;;;;55.25;10.38;;;;;;;11.78;100.00;98326.28;5017277;28;20635;-55
2022/10/20 03:39:07;;;;;;;42.85;9.80;;;;;;;12.18;100.00;98329.06;5019899;28;20181;-56
2022/10/20 03:41:33;;;;;;;39.85;9.27;;;;;;;12.26;100.00;98326.97;5017544;28;20037;-56
2022/10/20 03:43:58;;;;;;;40.95;9.77;;;;;;;12.13;100.00;98332.72;5019840;28;20124;-58
2022/10/20 03:46:23;;;;;;;33.00;9.68;;;;;;;11.87;100.00;98328.56;5018434;28;20041;-57
2022/10/20 03:48:48;;;;;;;47.55;10.75;;;;;;;11.94;100.00;98321.31;5020370;28;20124;-55
2022/10/20 03:51:14;;;;;;;46.95;11.18;;;;;;;12.01;100.00;98322.78;5018155;28;20040;-56
2022/10/20 03:53:40;;;;;;;45.65;10.82;;;;;;;11.33;100.00;98315.00;5019185;28;20040;-56
2022/10/20 03:56:08;;;;;;;44.63;10.73;;;;;;;11.85;100.00;98316.44;5019203;28;20069;-55
2022/10/20 03:58:34;;;;;;;36.90;9.57;;;;;;;12.41;100.00;98318.47;5019552;28;20024;-55
2022/10/20 04:00:59;;;;;;;45.53;10.95;;;;;;;12.01;100.00;98317.53;5017427;28;20038;-54
2022/10/20 04:03:25;;;;;;;35.13;9.73;;;;;;;12.23;100.00;98312.25;5019159;28;20488;-55
2022/10/20 04:05:50;;;;;;;41.70;10.30;;;;;;;11.39;100.00;98308.69;5018928;28;20041;-55
2022/10/20 04:08:15;;;;;;;37.47;10.00;;;;;;;11.89;100.00;98304.94;5019901;28;20029;-55
2022/10/20 04:10:41;;;;;;;39.25;10.05;;;;;;;11.92;100.00;98315.31;5017828;28;20096;-55
2022/10/20 04:13:06;;;;;;;44.80;10.68;;;;;;;12.10;100.00;98311.09;5019830;28;20053;-55
2022/10/20 04:15:31;;;;;;;40.15;10.60;;;;;;;11.50;100.00;98298.66;5018680;28;20029;-56
2022/10/20 04:17:58;;;;;;;42.70;10.73;;;;;;;11.17;100.00;98298.22;5018810;28;20036;-58
2022/10/20 04:20:23;;;;;;;41.05;9.90;;;;;;;11.69;100.00;98279.63;5017476;28;20049;-57
2022/10/20 04:22:49;;;;;;;36.35;10.35;;;;;;;11.65;100.00;98286.78;5018546;28;20075;-57
2022/10/20 04:25:14;;;;;;;45.20;10.38;;;;;;;11.95;100.00;98292.50;5018229;28;20443;-57
2022/10/20 04:27:40;;;;;;;42.00;10.32;;;;;;;11.94;100.00;98296.03;5019669;28;20095;-58
2022/10/20 04:30:07;;;;;;;49.42;10.80;;;;;;;12.07;100.00;98296.34;5018472;28;20037;-55
2022/10/20 04:32:32;;;;;;;31.98;9.30;;;;;;;12.43;100.00;98293.09;5017658;28;20060;-56
2022/10/20 04:34:58;;;;;;;37.85;10.15;;;;;;;11.84;100.00;98293.84;5018866;28;20139;-56
2022/10/20 04:37:23;;;;;;;45.15;9.93;;;;;;;12.19;100.00;98304.63;5018219;28;20045;-57
2022/10/20 04:39:50;;;;;;;36.10;9.77;;;;;;;12.11;100.00;98297.94;5018844;28;20673;-57
2022/10/20 04:42:18;;;;;;;51.67;10.95;;;;;;;12.12;100.00;98299.63;5017518;28;20502;-55
2022/10/20 04:44:44;;;;;;;36.92;10.18;;;;;;;11.49;100.00;98299.59;5018043;28;20026;-56
2022/10/20 04:47:09;;;;;;;38.50;10.27;;;;;;;11.93;100.00;98298.72;5018014;28;20052;-55
2022/10/20 04:49:35;;;;;;;51.80;10.57;;;;;;;12.13;100.00;98306.59;5019150;28;20022;-55
2022/10/20 04:52:00;;;;;;;36.15;9.73;;;;;;;11.93;100.00;98298.72;5017717;28;20577;-55
2022/10/20 04:54:25;;;;;;;42.97;10.18;;;;;;;11.83;100.00;98297.38;5018396;28;20029;-56
2022/10/20 04:56:51;;;;;;;34.25;9.38;;;;;;;11.83;100.00;98297.38;5018599;28;20768;-57
2022/10/20 04:59:16;;;;;;;43.78;10.70;;;;;;;11.99;100.00;98300.22;5018517;28;20124;-56
2022/10/20 05:01:41;;;;;;;35.50;9.13;;;;;;;12.59;100.00;98295.88;5016467;28;20064;-56
2022/10/20 05:04:08;;;;;;;35.33;9.35;;;;;;;12.43;100.00;98290.47;5018088;28;20033;-59
2022/10/20 05:06:33;;;;;;;45.25;10.07;;;;;;;12.03;100.00;98284.34;5017994;28;20045;-57
2022/10/20 05:09:01;;;;;;;39.80;9.80;;;;;;;12.38;100.00;98279.34;5018196;28;20095;-56
2022/10/20 05:11:28;;;;;;;37.58;9.43;;;;;;;12.11;100.00;98271.81;5016519;28;20598;-55
2022/10/20 05:13:54;;;;;;;35.85;9.88;;;;;;;12.20;100.00;98264.47;5018396;28;20033;-55
2022/10/20 05:16:20;;;;;;;32.13;10.00;;;;;;;11.95;100.00;98258.53;5017796;28;20045;-56
2022/10/20 05:18:47;;;;;;;40.92;10.55;;;;;;;11.84;100.00;98254.66;5017945;28;20481;-56
2022/10/20 05:21:18;;;;;;;42.58;9.63;;;;;;;12.21;100.00;98256.56;5016834;28;20826;-57
2022/10/20 05:23:44;;;;;;;39.72;9.68;;;;;;;12.03;100.00;98263.41;5018131;28;20044;-56
2022/10/20 05:26:15;;;;;;;41.72;10.80;;;;;;;11.52;100.00;98252.47;5018223;28;20034;-56
2022/10/20 05:28:45;;;;;;;44.97;10.68;;;;;;;12.07;100.00;98258.91;5018026;28;20025;-56
2022/10/20 05:31:12;;;;;;;40.75;10.05;;;;;;;11.76;100.00;98254.94;5016862;28;20709;-57
2022/10/20 05:33:38;;;;;;;37.67;10.55;;;;;;;11.47;100.00;98249.19;5019219;28;20017;-55
2022/10/20 05:36:08;;;;;;;36.25;9.30;;;;;;;11.97;100.00;98248.00;5018904;28;20061;-56
2022/10/20 05:38:35;;;;;;;36.13;10.27;;;;;;;11.23;100.00;98245.78;5017715;28;20026;-55
2022/10/20 05:41:15;;;;;;;48.95;11.90;;;;;;;11.67;100.00;98244.88;5017563;28;20045;-55
2022/10/20 05:43:41;;;;;;;51.85;15.55;;;;;;;11.56;100.00;98248.81;5018437;28;20642;-55
2022/10/20 05:46:07;;;;;;;44.78;12.20;;;;;;;11.30;100.00;98256.81;5017136;28;20096;-55
2022/10/20 05:48:33;;;;;;;39.90;11.75;;;;;;;10.73;100.00;98245.97;5018372;28;20116;-54
2022/10/20 05:51:13;;;;;;;44.40;12.18;;;;;;;10.78;100.00;98259.69;5017761;28;20037;-55
2022/10/20 05:53:39;;;;;;;48.15;13.18;;;;;;;10.95;100.00;98262.53;5018792;28;20104;-55
2022/10/20 05:56:06;;;;;;;52.38;12.48;;;;;;;11.20;100.00;98261.56;5018945;28;20638;-54
2022/10/20 05:58:31;;;;;;;41.33;12.07;;;;;;;10.13;100.00;98269.81;5021376;28;20603;-55
2022/10/20 06:01:25;;;;;;;43.70;12.18;;;;;;;10.77;100.00;98265.81;5020287;28;20057;-54
2022/10/20 06:03:52;;;;;;;42.75;12.02;;;;;;;10.93;100.00;98266.94;5019037;28;20114;-56
2022/10/20 06:06:20;;;;;;;51.42;12.45;;;;;;;10.78;100.00;98255.31;5021084;28;20132;-55
2022/10/20 06:08:46;;;;;;;46.47;12.05;;;;;;;10.99;100.00;98258.88;5020634;28;20083;-54
2022/10/20 06:11:12;;;;;;;53.17;12.98;;;;;;;10.84;100.00;98248.19;5019972;28;20629;-55
2022/10/20 06:13:37;;;;;;;41.80;12.07;;;;;;;11.00;100.00;98246.69;5021598;28;20719;-56
2022/10/20 06:16:06;;;;;;;43.83;11.60;;;;;;;10.89;100.00;98239.25;5020860;28;20045;-56
2022/10/20 06:18:32;;;;;;;42.25;11.90;;;;;;;10.98;100.00;98241.50;5021956;28;20017;-55
2022/10/20 06:21:01;;;;;;;38.25;12.40;;;;;;;10.97;100.00;98244.19;5021356;28;20045;-56
2022/10/20 06:23:27;;;;;;;58.88;12.98;;;;;;;11.29;100.00;98240.31;5019997;28;20517;-57
2022/10/20 06:25:52;;;;;;;44.22;11.52;;;;;;;11.09;100.00;98237.66;5020794;28;20113;-58
2022/10/20 06:28:18;;;;;;;42.35;11.18;;;;;;;11.16;100.00;98233.88;5021163;28;20124;-55
2022/10/20 06:30:43;;;;;;;36.53;10.77;;;;;;;11.12;100.00;98232.28;5019365;28;20083;-58
2022/10/20 06:33:11;;;;;;;37.38;11.15;;;;;;;11.96;100.00;98233.22;5020711;28;20124;-55
2022/10/20 06:35:36;;;;;;;46.50;11.73;;;;;;;11.77;100.00;98236.59;5021024;28;20422;-56
2022/10/20 06:38:02;;;;;;;41.75;11.15;;;;;;;11.65;100.00;98247.56;5020800;28;20529;-55
2022/10/20 06:40:27;;;;;;;36.60;11.18;;;;;;;12.03;100.00;98239.91;5019789;28;20456;-57
2022/10/20 06:42:53;;;;;;;38.85;11.15;;;;;;;11.51;100.00;98244.69;5019738;28;20025;-58
2022/10/20 06:45:18;;;;;;;47.33;11.30;;;;;;;12.31;100.00;98241.31;5020678;28;20983;-56
2022/10/20 06:47:43;;;;;;;53.80;11.85;;;;;;;12.55;100.00;98223.66;5020683;28;20406;-58
2022/10/20 06:50:09;;;;;;;41.03;10.40;;;;;;;12.93;100.00;98219.25;5020077;28;20091;-55
2022/10/20 06:52:34;;;;;;;40.35;10.02;;;;;;;11.92;100.00;98219.44;5020578;28;20087;-57
2022/10/20 06:54:59;;;;;;;39.65;10.30;;;;;;;12.70;100.00;98222.09;5020401;28;20029;-58
2022/10/20 06:57:25;;;;;;;39.17;10.15;;;;;;;13.21;100.00;98227.59;5019983;28;20034;-55
2022/10/20 06:59:50;;;;;;;40.50;10.95;;;;;;;13.09;100.00;98224.63;5019310;28;20320;-55
2022/10/20 07:02:16;;;;;;;37.15;9.82;;;;;;;12.59;100.00;98224.38;5022314;28;21006;-56
2022/10/20 07:04:41;;;;;;;39.75;9.98;;;;;;;13.05;100.00;98227.47;5025134;28;20109;-57
2022/10/20 07:07:06;;;;;;;32.70;9.35;;;;;;;12.77;100.00;98233.16;5019627;28;20033;-57
2022/10/20 07:09:32;;;;;;;47.42;10.50;;;;;;;16.44;100.00;98231.09;5019982;28;20021;-57
2022/10/20 07:11:57;;;;;;;36.67;9.75;;;;;;;17.89;100.00;98238.56;5021242;28;20072;-56
2022/10/20 07:14:23;;;;;;;33.17;7.97;;;;;;;16.90;100.00;98256.41;5020353;28;20023;-55
2022/10/20 07:16:48;;;;;;;29.15;8.05;;;;;;;18.25;100.00;98260.81;5020385;28;20047;-56
2022/10/20 07:19:13;;;;;;;30.90;7.30;;;;;;;18.95;100.00;98263.94;5020014;28;20454;-56
2022/10/20 07:21:39;;;;;;;29.40;7.22;;;;;;;19.15;91.75;98266.03;5018085;28;20127;-55
2022/10/20 07:24:06;;;;;;;36.88;8.15;;;;;;;20.49;100.00;98247.25;5017474;28;20026;-55
2022/10/20 07:26:34;;;;;;;31.92;7.70;;;;;;;21.50;100.00;98246.34;5019024;28;20040;-56
2022/10/20 07:29:00;;;;;;;28.92;7.75;;;;;;;18.00;82.76;98229.09;5021127;28;20057;-56
2022/10/20 07:31:29;;;;;;;28.40;7.30;;;;;;;19.65;77.86;98234.16;5018691;28;20131;-55
2022/10/20 07:33:57;;;;;;;24.73;6.93;;;;;;;21.71;69.22;98235.78;5019831;28;20026;-55
2022/10/20 07:36:25;;;;;;;38.63;7.97;;;;;;;22.50;68.67;98249.47;5019155;28;20045;-57
2022/10/20 07:38:56;;;;;;;21.15;6.82;;;;;;;22.18;61.31;98233.59;5019902;28;20616;-57
2022/10/20 07:41:22;;;;;;;22.05;6.68;;;;;;;22.34;58.22;98243.78;5017920;28;20502;-55
2022/10/20 07:43:47;;;;;;;22.73;6.38;;;;;;;23.23;54.96;98257.34;5020527;28;20033;-54
2022/10/20 07:46:13;;;;;;;23.58;6.68;;;;;;;22.20;59.63;98252.06;5019372;28;20041;-55
2022/10/20 07:48:40;;;;;;;27.20;7.82;;;;;;;23.59;68.31;98233.69;5019812;28;20026;-59
2022/10/20 07:51:33;;;;;;;27.48;6.65;;;;;;;20.76;64.05;98228.38;5017889;28;20041;-56
2022/10/20 07:54:01;;;;;;;27.02;7.03;;;;;;;20.34;65.34;98231.59;5018418;28;20124;-58
2022/10/20 07:56:35;;;;;;;26.80;6.95;;;;;;;19.38;66.92;98235.25;5019468;28;20129;-58
2022/10/20 07:59:00;;;;;;;29.20;7.78;;;;;;;19.89;70.99;98235.94;5019927;28;20021;-56
2022/10/20 08:01:26;;;;;;;21.33;6.88;;;;;;;19.53;71.61;98237.72;5017957;28;20047;-55
2022/10/20 08:03:51;;;;;;;27.48;7.47;;;;;;;18.04;82.59;98227.94;5019157;28;20120;-56
2022/10/20 08:06:17;;;;;;;24.65;8.40;;;;;;;18.84;81.45;98230.38;5018767;28;20124;-58
2022/10/20 08:08:42;;;;;;;23.50;8.05;;;;;;;17.66;86.43;98220.75;5019280;28;20523;-55
2022/10/20 08:11:08;;;;;;;35.17;9.23;;;;;;;17.91;92.02;98214.72;5017133;28;20041;-55
2022/10/20 08:13:33;;;;;;;27.35;8.55;;;;;;;17.65;92.89;98229.63;5019135;28;20025;-56
2022/10/20 08:15:59;;;;;;;33.00;8.75;;;;;;;18.53;89.20;98227.19;5018497;28;20121;-58
2022/10/20 08:18:25;;;;;;;25.30;7.40;;;;;;;18.41;89.81;98217.47;5019530;28;20044;-56
2022/10/20 08:20:50;;;;;;;28.48;8.45;;;;;;;17.92;91.43;98224.34;5018590;28;20071;-56
2022/10/20 08:23:15;;;;;;;29.58;8.32;;;;;;;16.87;97.04;98219.72;5016892;28;20037;-58
2022/10/20 08:25:41;;;;;;;28.98;7.97;;;;;;;17.84;91.82;98218.69;5019295;28;20640;-55
2022/10/20 08:28:07;;;;;;;30.98;9.05;;;;;;;17.56;93.75;98201.25;5019345;28;20040;-56
2022/10/20 08:30:34;;;;;;;36.65;8.82;;;;;;;17.68;94.23;98192.47;5017158;28;20112;-58
2022/10/20 08:32:59;;;;;;;29.13;7.70;;;;;;;17.19;95.94;98179.94;5018890;28;20104;-54
2022/10/20 08:35:25;;;;;;;28.80;8.07;;;;;;;17.96;95.70;98180.09;5017939;28;20025;-54
2022/10/20 08:37:50;;;;;;;32.45;8.40;;;;;;;18.55;90.24;98166.34;5018706;28;20049;-55
2022/10/20 08:40:20;;;;;;;29.23;8.02;;;;;;;18.76;86.50;98161.31;5017988;28;20120;-55
2022/10/20 08:42:46;;;;;;;35.95;8.85;;;;;;;19.24;84.15;98153.41;5018188;28;20041;-56
2022/10/20 08:45:19;;;;;;;32.10;8.30;;;;;;;19.58;79.02;98172.09;5018772;28;20035;-56
2022/10/20 08:47:45;;;;;;;;;;;;;;;21.44;72.54;98172.53;5018932;28;20542;-57
2022/10/20 08:50:15;;;;;;;27.90;7.70;;;;;;;21.92;70.04;98169.41;5017675;28;19920;-56
2022/10/20 08:52:41;;;;;;;28.55;7.45;;;;;;;22.68;64.12;98177.06;5018188;28;20031;-55
2022/10/20 08:55:21;;;;;;;29.08;7.35;;;;;;;22.25;62.93;98180.78;5018271;28;20035;-56
2022/10/20 08:57:48;;;;;;;31.10;7.70;;;;;;;21.29;66.90;98182.59;5018082;28;20049;-56
2022/10/20 09:00:20;;;;;;;27.38;6.82;;;;;;;24.74;59.38;98183.97;5017651;28;20402;-55
2022/10/20 09:02:47;;;;;;;24.17;6.55;;;;;;;24.18;65.30;98193.69;5018535;28;20666;-55
2022/10/20 09:05:14;;;;;;;20.67;6.25;;;;;;;24.98;60.75;98194.09;5018803;28;20725;-58
2022/10/20 09:07:39;;;;;;;18.33;6.20;;;;;;;24.97;60.22;98185.25;5018198;28;20095;-55
2022/10/20 09:10:30;;;;;;;24.70;6.55;;;;;;;24.78;59.70;98175.53;5017551;28;20037;-56
2022/10/20 09:12:56;;;;;;;24.65;6.85;;;;;;;25.54;54.24;98177.00;5017775;28;20101;-57
2022/10/20 09:15:24;;;;;;;21.10;6.03;;;;;;;24.58;62.09;98174.78;5018182;28;20124;-56
2022/10/20 09:18:03;;;;;;;23.48;5.60;;;;;;;23.85;57.76;98171.88;5018531;28;20022;-55
2022/10/20 09:20:53;;;;;;;26.02;7.05;;;;;;;24.67;53.46;98170.41;5017469;28;20293;-55
2022/10/20 09:23:23;;;;;;;20.52;6.32;;;;;;;23.90;54.08;98174.97;5017694;28;20067;-57
2022/10/20 09:25:52;;;;;;;18.92;6.18;;;;;;;25.24;52.76;98164.06;5018606;28;20030;-55
2022/10/20 09:28:23;;;;;;;24.27;6.88;;;;;;;25.08;51.51;98165.50;5018381;28;20025;-56
2022/10/20 09:30:49;;;;;;;18.48;5.57;;;;;;;24.43;62.35;98147.75;5017779;28;20858;-56
2022/10/20 09:33:27;;;;;;;22.38;6.88;;;;;;;24.03;54.57;98156.84;5021674;28;20037;-56
2022/10/20 09:36:01;;;;;;;22.55;5.70;;;;;;;24.76;58.35;98144.66;5022406;28;20116;-56
2022/10/20 09:38:28;;;;;;;22.80;6.38;;;;;;;23.94;53.79;98149.72;5021963;28;20112;-56
2022/10/20 09:41:12;;;;;;;24.00;7.00;;;;;;;23.14;54.64;98154.38;5020977;28;20798;-55
2022/10/20 09:43:49;;;;;;;22.13;6.70;;;;;;;22.20;55.04;98141.31;5021678;28;20029;-58
2022/10/20 09:46:21;;;;;;;25.00;6.90;;;;;;;21.71;58.71;98138.41;5022220;28;20037;-58
2022/10/20 09:48:48;;;;;;;25.75;7.03;;;;;;;21.26;57.96;98135.94;5022484;28;20033;-55
2022/10/20 09:51:17;;;;;;;25.92;7.05;;;;;;;20.40;62.96;98138.41;5020114;28;20057;-56
2022/10/20 09:53:54;;;;;;;24.52;6.68;;;;;;;21.13;61.53;98138.75;5021839;28;20025;-57
2022/10/20 09:56:28;;;;;;;27.48;7.22;;;;;;;21.29;60.63;98137.50;5023068;28;20037;-57
2022/10/20 09:58:56;;;;;;;22.25;5.90;;;;;;;23.03;67.32;98128.72;5022225;28;20022;-55
2022/10/20 10:01:21;;;;;;;24.80;6.22;;;;;;;23.43;65.15;98121.59;5020235;28;20719;-56
2022/10/20 10:03:50;;;;;;;26.08;6.53;;;;;;;22.64;59.82;98111.84;5021827;28;20029;-58
2022/10/20 10:06:43;;;;;;;22.27;5.72;;;;;;;22.95;60.90;98119.75;5021480;28;20797;-55
2022/10/20 10:09:33;;;;;;;25.17;5.88;;;;;;;23.85;70.75;98118.63;5013613;28;20430;-58
2022/10/20 10:12:14;;;;;;;25.48;6.75;;;;;;;23.52;59.28;98127.91;5019954;28;20506;-56
2022/10/20 10:14:54;;;;;;;23.65;6.80;;;;;;;23.69;58.30;98124.50;5020990;28;20513;-55
2022/10/20 10:17:41;;;;;;;28.02;6.20;;;;;;;23.72;60.06;98120.72;5021413;28;20049;-56
2022/10/20 10:20:29;;;;;;;22.90;5.68;;;;;;;25.10;61.05;98118.16;5020839;28;20064;-55
2022/10/20 10:23:17;;;;;;;25.50;6.82;;;;;;;23.91;54.82;98118.03;5019561;28;20013;-56
2022/10/20 10:25:42;;;;;;;24.00;6.15;;;;;;;24.52;56.05;98115.81;5020545;28;20542;-59
2022/10/20 10:28:22;;;;;;;18.25;4.95;;;;;;;24.22;66.13;98101.81;5021705;28;20059;-56
2022/10/20 10:30:48;;;;;;;23.58;6.47;;;;;;;24.21;56.68;98108.13;5019355;28;20044;-55
2022/10/20 10:33:28;;;;;;;20.38;5.25;;;;;;;24.77;62.55;98099.16;5020531;28;20021;-56
2022/10/20 10:35:54;;;;;;;20.45;6.25;;;;;;;22.97;59.81;98096.50;5019851;28;20568;-56
2022/10/20 10:38:20;;;;;;;24.60;5.55;;;;;;;24.25;66.17;98093.53;5021739;28;20025;-60
2022/10/20 10:41:24;;;;;;;22.08;5.72;;;;;;;24.61;68.25;98098.97;5020329;28;20048;-58
2022/10/20 10:44:07;;;;;;;24.30;5.90;;;;;;;23.31;60.11;98104.13;5021038;28;20029;-57
2022/10/20 10:46:41;;;;;;;30.90;6.80;;;;;;;23.60;61.55;98094.28;5020294;28;20052;-55
2022/10/20 10:49:32;;;;;;;32.67;6.68;;;;;;;23.07;69.18;98092.06;5021013;28;20025;-56
2022/10/20 10:52:25;;;;;;;24.27;5.75;;;;;;;24.35;68.95;98082.81;5021001;28;20134;-56
2022/10/20 10:55:09;;;;;;;24.73;5.28;;;;;;;24.15;58.54;98085.59;5021228;28;20048;-56
2022/10/20 10:57:44;;;;;;;26.70;5.43;;;;;;;24.53;63.84;98070.38;5022106;28;20069;-56
2022/10/20 11:00:25;;;;;;;31.40;6.40;;;;;;;24.05;59.57;98061.63;5019153;28;20136;-56
2022/10/20 11:03:36;;;;;;;25.90;5.82;;;;;;;23.71;65.32;98063.13;5020743;28;20041;-58
2022/10/20 11:06:17;;;;;;;28.77;5.75;;;;;;;23.13;68.45;98053.44;5019433;28;20037;-56
2022/10/20 11:08:57;;;;;;;24.58;5.65;;;;;;;22.86;63.59;98061.06;5019617;28;20155;-56
2022/10/20 11:11:25;;;;;;;30.10;6.20;;;;;;;22.74;66.21;98054.22;5018891;28;20079;-56
2022/10/20 11:13:50;;;;;;;26.73;5.63;;;;;;;23.24;72.30;98039.97;5020056;28;20715;-56
2022/10/20 11:16:53;;;;;;;26.60;5.53;;;;;;;22.83;77.49;98041.91;5019995;28;20037;-55
2022/10/20 11:19:47;;;;;;;33.20;6.15;;;;;;;21.26;68.72;98034.28;5016754;28;20308;-57
2022/10/20 11:22:33;;;;;;;26.67;5.95;;;;;;;22.37;76.00;98046.88;5019516;28;20052;-56
2022/10/20 11:25:15;;;;;;;46.58;6.63;;;;;;;22.45;65.79;98049.69;5020659;28;20086;-55
2022/10/20 11:27:40;;;;;;;31.60;6.00;;;;;;;21.94;72.75;98055.94;5019474;28;20041;-58
2022/10/20 11:30:18;;;;;;;21.65;5.32;;;;;;;22.49;78.23;98066.22;5020307;28;20643;-56
2022/10/20 11:33:15;;;;;;;31.90;6.13;;;;;;;21.97;70.50;98060.97;5018937;28;20060;-56
2022/10/20 11:35:50;;;;;;;37.45;6.90;;;;;;;22.07;71.28;98069.81;5014418;28;20581;-57
2022/10/20 11:38:19;;;;;;;27.15;5.93;;;;;;;22.33;72.98;98061.41;5020622;28;20067;-55
2022/10/20 11:41:08;;;;;;;30.73;6.18;;;;;;;22.52;75.06;98055.31;5019326;28;20197;-56
2022/10/20 11:44:05;;;;;;;29.52;6.40;;;;;;;21.98;72.22;98056.50;5011866;28;20041;-56
2022/10/20 11:46:38;;;;;;;31.35;6.93;;;;;;;21.49;70.48;98030.56;5018337;28;20442;-56
2022/10/20 11:49:04;;;;;;;31.63;6.43;;;;;;;21.25;71.16;98032.63;5019367;28;20025;-58
2022/10/20 11:51:29;;;;;;;26.10;6.00;;;;;;;21.60;72.46;98023.50;5018015;28;20642;-56
2022/10/20 11:54:26;;;;;;;32.83;6.80;;;;;;;21.48;80.42;98014.78;5018816;28;20033;-56
2022/10/20 11:57:04;;;;;;;31.05;6.80;;;;;;;20.98;73.93;98013.56;5019360;28;20561;-58
2022/10/20 12:00:07;;;;;;;27.63;6.47;;;;;;;20.60;75.34;98016.72;5019769;28;20479;-55
2022/10/20 12:03:05;;;;;;;26.85;6.45;;;;;;;20.16;80.06;98014.06;5018194;28;20049;-55
2022/10/20 12:05:52;;;;;;;31.60;5.95;;;;;;;21.59;86.79;98008.53;5019144;28;20037;-57
2022/10/20 12:08:38;;;;;;;28.73;6.10;;;;;;;22.05;80.58;98010.69;5019441;28;20025;-57
2022/10/20 12:11:41;;;;;;;36.15;6.63;;;;;;;21.78;79.12;98000.69;5017392;28;20103;-55
2022/10/20 12:14:26;;;;;;;33.90;6.63;;;;;;;21.91;77.86;97992.47;5019831;28;20021;-54
2022/10/20 12:16:54;;;;;;;30.73;5.75;;;;;;;22.65;78.62;97992.09;5018490;28;20068;-56
2022/10/20 12:19:38;;;;;;;26.75;5.50;;;;;;;22.21;75.73;97982.78;5018979;28;20022;-55
2022/10/20 12:22:13;;;;;;;34.83;6.80;;;;;;;22.19;79.44;97990.03;5017415;28;20037;-54
2022/10/20 12:25:02;;;;;;;33.08;6.40;;;;;;;22.33;79.89;97987.00;5018198;28;20033;-55
2022/10/20 12:27:28;;;;;;;24.25;5.57;;;;;;;21.70;80.90;97979.25;5018084;28;20037;-54
2022/10/20 12:30:18;;;;;;;32.00;6.40;;;;;;;22.04;74.86;97982.44;5018240;28;20032;-54